sensor_id;sensor_type;location;lat;lon;timestamp;pressure;altitude;pressure_sealevel;temperature;humidity
37304;BME280;23188;51.188;16.374;2023-02-23T00:03:12;100202.33;;;4.29;94.67
37304;BME280;23188;51.188;16.374;2023-02-23T00:07:14;100201.67;;;4.29;94.80
37304;BME280;23188;51.188;16.374;2023-02-23T00:11:20;100196.42;;;4.25;94.67
37304;BME280;23188;51.188;16.374;2023-02-23T00:15:22;100193.95;;;4.22;94.78
37304;BME280;23188;51.188;16.374;2023-02-23T00:19:26;100191.46;;;4.20;94.60
37304;BME280;23188;51.188;16.374;2023-02-23T00:23:28;100187.05;;;4.17;94.52
37304;BME280;23188;51.188;16.374;2023-02-23T00:27:30;100187.34;;;4.15;94.34
37304;BME280;23188;51.188;16.374;2023-02-23T00:31:31;100185.73;;;4.13;94.24
37304;BME280;23188;51.188;16.374;2023-02-23T00:35:33;100184.34;;;4.09;94.36
37304;BME280;23188;51.188;16.374;2023-02-23T00:39:34;100182.21;;;4.09;94.06
37304;BME280;23188;51.188;16.374;2023-02-23T00:43:37;100182.63;;;4.11;93.90
37304;BME280;23188;51.188;16.374;2023-02-23T00:47:41;100181.34;;;4.09;93.96
37304;BME280;23188;51.188;16.374;2023-02-23T00:51:43;100180.20;;;4.11;93.99
37304;BME280;23188;51.188;16.374;2023-02-23T00:55:44;100174.95;;;4.08;93.79
37304;BME280;23188;51.188;16.374;2023-02-23T00:59:46;100173.48;;;4.09;93.81
37304;BME280;23188;51.188;16.374;2023-02-23T01:03:47;100171.69;;;4.03;94.17
37304;BME280;23188;51.188;16.374;2023-02-23T01:07:49;100171.35;;;4.00;94.15
37304;BME280;23188;51.188;16.374;2023-02-23T01:11:51;100173.55;;;3.98;94.11
37304;BME280;23188;51.188;16.374;2023-02-23T01:15:53;100172.09;;;3.96;93.97
37304;BME280;23188;51.188;16.374;2023-02-23T01:19:54;100166.70;;;3.95;93.89
37304;BME280;23188;51.188;16.374;2023-02-23T01:23:56;100168.50;;;3.91;94.04
37304;BME280;23188;51.188;16.374;2023-02-23T01:27:58;100166.69;;;3.89;94.15
37304;BME280;23188;51.188;16.374;2023-02-23T01:31:59;100167.66;;;3.91;93.88
37304;BME280;23188;51.188;16.374;2023-02-23T01:36:06;100163.64;;;3.87;93.75
37304;BME280;23188;51.188;16.374;2023-02-23T01:40:12;100164.24;;;3.85;93.97
37304;BME280;23188;51.188;16.374;2023-02-23T01:48:26;100162.44;;;3.83;93.91
37304;BME280;23188;51.188;16.374;2023-02-23T01:52:29;100160.81;;;3.81;93.99
37304;BME280;23188;51.188;16.374;2023-02-23T01:56:33;100162.48;;;3.70;95.00
37304;BME280;23188;51.188;16.374;2023-02-23T02:00:36;100163.52;;;3.70;94.98
37304;BME280;23188;51.188;16.374;2023-02-23T02:04:39;100159.29;;;3.64;95.49
37304;BME280;23188;51.188;16.374;2023-02-23T02:08:51;100160.66;;;3.62;95.41
37304;BME280;23188;51.188;16.374;2023-02-23T02:12:55;100158.48;;;3.56;95.69
37304;BME280;23188;51.188;16.374;2023-02-23T02:17:29;100159.48;;;3.54;95.85
37304;BME280;23188;51.188;16.374;2023-02-23T02:43:14;100146.77;;;3.33;96.82
37304;BME280;23188;51.188;16.374;2023-02-23T02:47:27;100138.21;;;3.32;97.00
37304;BME280;23188;51.188;16.374;2023-02-23T02:51:35;100139.30;;;3.28;97.36
37304;BME280;23188;51.188;16.374;2023-02-23T02:55:40;100135.39;;;3.29;97.18
37304;BME280;23188;51.188;16.374;2023-02-23T02:59:46;100137.77;;;3.30;97.10
37304;BME280;23188;51.188;16.374;2023-02-23T03:04:21;100137.90;;;3.28;96.99
37304;BME280;23188;51.188;16.374;2023-02-23T03:08:53;100136.30;;;3.25;97.25
37304;BME280;23188;51.188;16.374;2023-02-23T03:17:45;100137.12;;;3.23;97.33
37304;BME280;23188;51.188;16.374;2023-02-23T03:31:09;100130.59;;;3.17;97.75
37304;BME280;23188;51.188;16.374;2023-02-23T03:35:52;100133.08;;;3.17;97.76
37304;BME280;23188;51.188;16.374;2023-02-23T03:40:25;100140.02;;;3.18;97.56
37304;BME280;23188;51.188;16.374;2023-02-23T03:44:47;100137.84;;;3.19;97.45
37304;BME280;23188;51.188;16.374;2023-02-23T03:49:11;100138.65;;;3.17;97.46
37304;BME280;23188;51.188;16.374;2023-02-23T03:53:59;100141.19;;;3.19;97.30
37304;BME280;23188;51.188;16.374;2023-02-23T03:58:30;100135.46;;;3.14;97.40
37304;BME280;23188;51.188;16.374;2023-02-23T04:02:53;100135.66;;;3.11;97.56
37304;BME280;23188;51.188;16.374;2023-02-23T04:07:15;100132.30;;;3.08;97.90
37304;BME280;23188;51.188;16.374;2023-02-23T04:16:10;100129.88;;;3.04;97.78
37304;BME280;23188;51.188;16.374;2023-02-23T04:20:13;100131.86;;;3.03;97.64
37304;BME280;23188;51.188;16.374;2023-02-23T04:24:15;100131.99;;;3.04;97.64
37304;BME280;23188;51.188;16.374;2023-02-23T04:28:17;100130.71;;;3.05;97.58
37304;BME280;23188;51.188;16.374;2023-02-23T04:32:20;100128.32;;;2.97;98.12
37304;BME280;23188;51.188;16.374;2023-02-23T04:36:22;100128.56;;;2.96;98.29
37304;BME280;23188;51.188;16.374;2023-02-23T04:40:25;100127.77;;;3.00;98.25
37304;BME280;23188;51.188;16.374;2023-02-23T04:44:30;100123.11;;;3.06;98.04
37304;BME280;23188;51.188;16.374;2023-02-23T04:48:32;100120.85;;;3.09;97.85
37304;BME280;23188;51.188;16.374;2023-02-23T04:52:35;100121.82;;;3.08;97.49
37304;BME280;23188;51.188;16.374;2023-02-23T04:56:38;100119.76;;;3.10;97.62
37304;BME280;23188;51.188;16.374;2023-02-23T05:00:41;100115.59;;;3.12;97.58
37304;BME280;23188;51.188;16.374;2023-02-23T05:04:43;100118.38;;;3.13;97.57
37304;BME280;23188;51.188;16.374;2023-02-23T05:08:46;100115.03;;;3.10;97.45
37304;BME280;23188;51.188;16.374;2023-02-23T05:12:48;100115.58;;;3.10;97.58
37304;BME280;23188;51.188;16.374;2023-02-23T05:16:50;100108.45;;;3.05;97.84
37304;BME280;23188;51.188;16.374;2023-02-23T05:20:53;100106.87;;;3.05;97.95
37304;BME280;23188;51.188;16.374;2023-02-23T05:25:02;100100.58;;;2.98;98.26
37304;BME280;23188;51.188;16.374;2023-02-23T05:29:05;100097.77;;;2.91;98.88
37304;BME280;23188;51.188;16.374;2023-02-23T05:33:09;100100.27;;;2.91;99.00
37304;BME280;23188;51.188;16.374;2023-02-23T05:37:12;100094.41;;;2.85;99.34
37304;BME280;23188;51.188;16.374;2023-02-23T05:41:18;100094.48;;;2.84;99.79
37304;BME280;23188;51.188;16.374;2023-02-23T05:45:21;100097.37;;;2.82;99.91
37304;BME280;23188;51.188;16.374;2023-02-23T05:49:23;100093.12;;;2.83;99.97
37304;BME280;23188;51.188;16.374;2023-02-23T05:53:25;100090.04;;;2.79;100.00
37304;BME280;23188;51.188;16.374;2023-02-23T05:57:28;100095.68;;;2.75;100.00
37304;BME280;23188;51.188;16.374;2023-02-23T06:01:31;100103.36;;;2.72;100.00
37304;BME280;23188;51.188;16.374;2023-02-23T06:05:33;100101.48;;;2.74;100.00
37304;BME280;23188;51.188;16.374;2023-02-23T06:09:36;100098.78;;;2.75;100.00
37304;BME280;23188;51.188;16.374;2023-02-23T06:13:39;100100.14;;;2.80;100.00
37304;BME280;23188;51.188;16.374;2023-02-23T06:17:40;100102.09;;;2.82;100.00
37304;BME280;23188;51.188;16.374;2023-02-23T06:21:42;100101.33;;;2.87;100.00
37304;BME280;23188;51.188;16.374;2023-02-23T06:25:47;100103.42;;;2.90;100.00
37304;BME280;23188;51.188;16.374;2023-02-23T06:29:51;100104.70;;;2.93;100.00
37304;BME280;23188;51.188;16.374;2023-02-23T06:33:53;100102.85;;;2.95;100.00
37304;BME280;23188;51.188;16.374;2023-02-23T06:37:56;100107.98;;;3.01;100.00
37304;BME280;23188;51.188;16.374;2023-02-23T06:41:58;100107.91;;;3.09;100.00
37304;BME280;23188;51.188;16.374;2023-02-23T06:46:01;100103.57;;;3.14;100.00
37304;BME280;23188;51.188;16.374;2023-02-23T06:50:05;100108.61;;;3.25;99.92
37304;BME280;23188;51.188;16.374;2023-02-23T06:54:09;100107.35;;;3.29;99.87
37304;BME280;23188;51.188;16.374;2023-02-23T06:58:11;100108.27;;;3.35;99.83
37304;BME280;23188;51.188;16.374;2023-02-23T07:02:13;100108.90;;;3.39;100.00
37304;BME280;23188;51.188;16.374;2023-02-23T07:06:16;100107.75;;;3.44;100.00
37304;BME280;23188;51.188;16.374;2023-02-23T07:10:17;100110.45;;;3.52;99.95
37304;BME280;23188;51.188;16.374;2023-02-23T07:14:19;100107.58;;;3.57;99.95
37304;BME280;23188;51.188;16.374;2023-02-23T07:18:28;100107.14;;;3.62;99.77
37304;BME280;23188;51.188;16.374;2023-02-23T07:22:30;100110.15;;;3.74;99.30
37304;BME280;23188;51.188;16.374;2023-02-23T07:26:32;100110.38;;;3.80;99.26
37304;BME280;23188;51.188;16.374;2023-02-23T07:30:34;100109.02;;;3.82;99.18
37304;BME280;23188;51.188;16.374;2023-02-23T07:34:37;100111.11;;;3.82;99.56
37304;BME280;23188;51.188;16.374;2023-02-23T07:38:40;100110.33;;;3.96;99.06
37304;BME280;23188;51.188;16.374;2023-02-23T07:42:43;100105.66;;;4.04;98.93
37304;BME280;23188;51.188;16.374;2023-02-23T07:46:46;100100.60;;;4.16;98.09
37304;BME280;23188;51.188;16.374;2023-02-23T07:50:47;100099.38;;;4.31;98.15
37304;BME280;23188;51.188;16.374;2023-02-23T07:54:50;100093.98;;;4.42;97.59
37304;BME280;23188;51.188;16.374;2023-02-23T07:58:52;100092.67;;;4.47;97.19
37304;BME280;23188;51.188;16.374;2023-02-23T08:02:54;100081.68;;;4.66;97.39
37304;BME280;23188;51.188;16.374;2023-02-23T08:06:56;100079.11;;;4.88;96.71
37304;BME280;23188;51.188;16.374;2023-02-23T08:11:00;100083.73;;;5.08;95.67
37304;BME280;23188;51.188;16.374;2023-02-23T08:15:02;100082.91;;;5.24;96.08
37304;BME280;23188;51.188;16.374;2023-02-23T08:19:08;100078.20;;;5.48;94.57
37304;BME280;23188;51.188;16.374;2023-02-23T08:23:10;100078.17;;;5.65;93.59
37304;BME280;23188;51.188;16.374;2023-02-23T08:27:13;100079.58;;;5.90;92.35
37304;BME280;23188;51.188;16.374;2023-02-23T08:31:15;100071.48;;;5.99;91.34
37304;BME280;23188;51.188;16.374;2023-02-23T08:35:21;100074.08;;;6.08;91.50
37304;BME280;23188;51.188;16.374;2023-02-23T08:39:23;100070.55;;;6.26;91.51
37304;BME280;23188;51.188;16.374;2023-02-23T08:43:25;100074.04;;;6.43;90.62
37304;BME280;23188;51.188;16.374;2023-02-23T08:47:28;100073.87;;;6.58;90.22
37304;BME280;23188;51.188;16.374;2023-02-23T08:51:32;100070.53;;;6.71;89.15
37304;BME280;23188;51.188;16.374;2023-02-23T08:55:36;100064.72;;;6.92;89.39
37304;BME280;23188;51.188;16.374;2023-02-23T08:59:38;100062.22;;;7.10;87.87
37304;BME280;23188;51.188;16.374;2023-02-23T09:03:41;100062.75;;;7.32;87.83
37304;BME280;23188;51.188;16.374;2023-02-23T09:17:17;100064.98;;;8.04;87.42
37304;BME280;23188;51.188;16.374;2023-02-23T09:21:19;100056.37;;;8.27;85.01
37304;BME280;23188;51.188;16.374;2023-02-23T09:25:56;100050.89;;;8.30;86.13
37304;BME280;23188;51.188;16.374;2023-02-23T09:30:12;100044.30;;;8.35;86.69
37304;BME280;23188;51.188;16.374;2023-02-23T09:34:19;100040.69;;;8.31;87.63
37304;BME280;23188;51.188;16.374;2023-02-23T09:38:25;100038.91;;;8.57;86.39
37304;BME280;23188;51.188;16.374;2023-02-23T09:58:06;100026.15;;;9.19;83.52
37304;BME280;23188;51.188;16.374;2023-02-23T10:02:20;100022.91;;;9.31;84.94
37304;BME280;23188;51.188;16.374;2023-02-23T10:11:24;100020.73;;;9.84;83.73
37304;BME280;23188;51.188;16.374;2023-02-23T10:15:41;100015.39;;;9.97;83.77
37304;BME280;23188;51.188;16.374;2023-02-23T10:20:20;100014.59;;;10.09;83.88
37304;BME280;23188;51.188;16.374;2023-02-23T10:24:59;100006.69;;;10.25;82.21
37304;BME280;23188;51.188;16.374;2023-02-23T10:29:56;100004.49;;;10.45;81.74
37304;BME280;23188;51.188;16.374;2023-02-23T10:34:03;99998.85;;;10.63;81.72
37304;BME280;23188;51.188;16.374;2023-02-23T10:38:13;99997.43;;;10.76;81.89
37304;BME280;23188;51.188;16.374;2023-02-23T10:42:20;99992.66;;;10.84;81.48
37304;BME280;23188;51.188;16.374;2023-02-23T10:46:28;99994.33;;;10.92;81.32
37304;BME280;23188;51.188;16.374;2023-02-23T10:50:57;99988.44;;;11.12;81.25
37304;BME280;23188;51.188;16.374;2023-02-23T10:55:03;99985.06;;;11.22;80.96
37304;BME280;23188;51.188;16.374;2023-02-23T10:59:18;99976.36;;;11.24;80.10
37304;BME280;23188;51.188;16.374;2023-02-23T11:03:49;99972.38;;;11.29;79.98
37304;BME280;23188;51.188;16.374;2023-02-23T11:08:29;99965.96;;;11.31;81.48
37304;BME280;23188;51.188;16.374;2023-02-23T11:16:38;99956.80;;;11.44;81.52
37304;BME280;23188;51.188;16.374;2023-02-23T11:20:40;99954.86;;;11.54;80.71
37304;BME280;23188;51.188;16.374;2023-02-23T11:24:45;99953.33;;;11.57;80.93
37304;BME280;23188;51.188;16.374;2023-02-23T11:28:52;99947.40;;;11.58;80.63
37304;BME280;23188;51.188;16.374;2023-02-23T11:32:57;99942.17;;;11.55;80.87
37304;BME280;23188;51.188;16.374;2023-02-23T11:37:07;99938.21;;;11.40;81.47
37304;BME280;23188;51.188;16.374;2023-02-23T11:41:24;99931.09;;;11.48;82.12
37304;BME280;23188;51.188;16.374;2023-02-23T11:45:29;99925.20;;;11.42;82.80
37304;BME280;23188;51.188;16.374;2023-02-23T11:49:59;99925.67;;;11.35;83.13
37304;BME280;23188;51.188;16.374;2023-02-23T11:54:03;99922.83;;;11.37;83.58
37304;BME280;23188;51.188;16.374;2023-02-23T12:02:54;99920.21;;;11.37;83.63
37304;BME280;23188;51.188;16.374;2023-02-23T12:11:25;99915.45;;;11.52;83.44
37304;BME280;23188;51.188;16.374;2023-02-23T12:20:29;99910.77;;;11.56;83.11
37304;BME280;23188;51.188;16.374;2023-02-23T12:24:43;99903.17;;;11.64;83.51
37304;BME280;23188;51.188;16.374;2023-02-23T12:29:15;99891.13;;;11.81;83.26
37304;BME280;23188;51.188;16.374;2023-02-23T12:33:59;99881.60;;;12.02;83.12
37304;BME280;23188;51.188;16.374;2023-02-23T12:43:29;99876.84;;;12.31;82.27
37304;BME280;23188;51.188;16.374;2023-02-23T12:47:40;99871.06;;;12.44;81.26
37304;BME280;23188;51.188;16.374;2023-02-23T12:51:49;99868.92;;;12.50;80.89
37304;BME280;23188;51.188;16.374;2023-02-23T13:00:29;99860.39;;;12.55;81.54
37304;BME280;23188;51.188;16.374;2023-02-23T13:13:48;99857.27;;;12.83;80.63
37304;BME280;23188;51.188;16.374;2023-02-23T13:17:57;99849.45;;;12.89;80.76
37304;BME280;23188;51.188;16.374;2023-02-23T13:26:50;99835.54;;;12.94;80.36
37304;BME280;23188;51.188;16.374;2023-02-23T13:30:54;99832.13;;;12.93;80.85
37304;BME280;23188;51.188;16.374;2023-02-23T13:35:00;99826.95;;;12.97;80.99
37304;BME280;23188;51.188;16.374;2023-02-23T13:39:21;99825.70;;;13.01;80.93
37304;BME280;23188;51.188;16.374;2023-02-23T13:43:33;99822.95;;;13.05;79.66
37304;BME280;23188;51.188;16.374;2023-02-23T13:47:46;99822.55;;;13.00;80.33
37304;BME280;23188;51.188;16.374;2023-02-23T13:52:45;99822.72;;;13.07;81.01
37304;BME280;23188;51.188;16.374;2023-02-23T13:56:24;99824.31;;;13.20;80.40
37304;BME280;23188;51.188;16.374;2023-02-23T14:00:26;99818.77;;;13.31;80.73
37304;BME280;23188;51.188;16.374;2023-02-23T14:04:36;99818.08;;;13.36;80.59
37304;BME280;23188;51.188;16.374;2023-02-23T14:09:29;99815.30;;;13.39;80.80
37304;BME280;23188;51.188;16.374;2023-02-23T14:13:57;99809.86;;;13.35;80.33
37304;BME280;23188;51.188;16.374;2023-02-23T15:01:38;99798.30;;;13.36;84.44
37304;BME280;23188;51.188;16.374;2023-02-23T15:30:29;99774.14;;;13.37;85.64
37304;BME280;23188;51.188;16.374;2023-02-23T15:34:32;99772.17;;;13.34;86.17
37304;BME280;23188;51.188;16.374;2023-02-23T15:38:41;99771.38;;;13.31;86.45
37304;BME280;23188;51.188;16.374;2023-02-23T15:47:34;99777.20;;;13.19;87.26
37304;BME280;23188;51.188;16.374;2023-02-23T15:51:46;99776.77;;;13.04;86.93
37304;BME280;23188;51.188;16.374;2023-02-23T15:56:18;99772.05;;;12.87;86.50
37304;BME280;23188;51.188;16.374;2023-02-23T16:00:48;99765.88;;;12.68;85.94
37304;BME280;23188;51.188;16.374;2023-02-23T16:04:51;99763.91;;;12.52;86.22
37304;BME280;23188;51.188;16.374;2023-02-23T16:13:24;99760.53;;;12.19;87.79
37304;BME280;23188;51.188;16.374;2023-02-23T16:21:31;99759.08;;;11.93;88.13
37304;BME280;23188;51.188;16.374;2023-02-23T16:25:33;99754.51;;;11.77;88.91
37304;BME280;23188;51.188;16.374;2023-02-23T16:29:38;99750.42;;;11.66;89.73
37304;BME280;23188;51.188;16.374;2023-02-23T16:33:50;99753.31;;;11.56;90.45
37304;BME280;23188;51.188;16.374;2023-02-23T16:38:08;99753.91;;;11.46;91.11
37304;BME280;23188;51.188;16.374;2023-02-23T16:42:24;99748.41;;;11.42;91.50
37304;BME280;23188;51.188;16.374;2023-02-23T16:46:30;99749.33;;;11.38;92.03
37304;BME280;23188;51.188;16.374;2023-02-23T16:50:33;99749.82;;;11.36;92.28
37304;BME280;23188;51.188;16.374;2023-02-23T16:54:36;99749.58;;;11.34;92.85
37304;BME280;23188;51.188;16.374;2023-02-23T16:58:39;99746.93;;;11.35;92.83
37304;BME280;23188;51.188;16.374;2023-02-23T17:02:43;99742.48;;;11.33;92.90
37304;BME280;23188;51.188;16.374;2023-02-23T17:06:46;99743.09;;;11.28;93.11
37304;BME280;23188;51.188;16.374;2023-02-23T17:10:55;99737.67;;;11.22;93.17
37304;BME280;23188;51.188;16.374;2023-02-23T17:14:57;99736.22;;;11.13;93.57
37304;BME280;23188;51.188;16.374;2023-02-23T17:19:00;99736.57;;;11.03;94.12
37304;BME280;23188;51.188;16.374;2023-02-23T17:23:02;99732.25;;;10.92;94.66
37304;BME280;23188;51.188;16.374;2023-02-23T17:27:04;99736.11;;;10.83;94.95
37304;BME280;23188;51.188;16.374;2023-02-23T17:31:06;99741.77;;;10.63;96.23
37304;BME280;23188;51.188;16.374;2023-02-23T17:35:09;99744.38;;;10.35;98.10
37304;BME280;23188;51.188;16.374;2023-02-23T17:39:11;99744.33;;;10.18;99.40
37304;BME280;23188;51.188;16.374;2023-02-23T17:43:16;99745.64;;;9.99;100.00
37304;BME280;23188;51.188;16.374;2023-02-23T17:47:20;99744.94;;;9.89;100.00
37304;BME280;23188;51.188;16.374;2023-02-23T17:51:22;99740.70;;;9.82;100.00
37304;BME280;23188;51.188;16.374;2023-02-23T17:55:24;99741.30;;;9.86;100.00
37304;BME280;23188;51.188;16.374;2023-02-23T17:59:26;99742.12;;;9.82;100.00
37304;BME280;23188;51.188;16.374;2023-02-23T18:03:31;99745.46;;;9.85;100.00
37304;BME280;23188;51.188;16.374;2023-02-23T18:07:33;99745.09;;;9.93;99.29
37304;BME280;23188;51.188;16.374;2023-02-23T18:11:36;99744.30;;;9.96;98.68
37304;BME280;23188;51.188;16.374;2023-02-23T18:15:39;99741.80;;;9.92;97.80
37304;BME280;23188;51.188;16.374;2023-02-23T18:19:51;99739.61;;;9.89;97.75
37304;BME280;23188;51.188;16.374;2023-02-23T18:23:57;99736.78;;;9.84;97.04
37304;BME280;23188;51.188;16.374;2023-02-23T18:27:59;99738.72;;;9.83;96.75
37304;BME280;23188;51.188;16.374;2023-02-23T18:32:02;99736.39;;;9.87;96.23
37304;BME280;23188;51.188;16.374;2023-02-23T18:36:26;99737.77;;;9.92;95.95
37304;BME280;23188;51.188;16.374;2023-02-23T18:40:28;99735.80;;;9.94;95.38
37304;BME280;23188;51.188;16.374;2023-02-23T18:44:30;99740.42;;;9.94;95.29
37304;BME280;23188;51.188;16.374;2023-02-23T18:48:36;99737.46;;;9.91;95.34
37304;BME280;23188;51.188;16.374;2023-02-23T18:52:38;99738.15;;;9.77;95.37
37304;BME280;23188;51.188;16.374;2023-02-23T18:56:42;99736.42;;;9.72;96.18
37304;BME280;23188;51.188;16.374;2023-02-23T19:00:45;99735.50;;;9.71;96.27
37304;BME280;23188;51.188;16.374;2023-02-23T19:04:46;99738.59;;;9.64;96.29
37304;BME280;23188;51.188;16.374;2023-02-23T19:08:51;99735.95;;;9.51;97.40
37304;BME280;23188;51.188;16.374;2023-02-23T19:12:55;99735.80;;;9.49;97.64
37304;BME280;23188;51.188;16.374;2023-02-23T19:16:56;99735.41;;;9.53;97.82
37304;BME280;23188;51.188;16.374;2023-02-23T19:20:59;99730.75;;;9.56;97.77
37304;BME280;23188;51.188;16.374;2023-02-23T19:25:01;99731.79;;;9.58;98.29
37304;BME280;23188;51.188;16.374;2023-02-23T19:29:03;99728.70;;;9.67;98.57
37304;BME280;23188;51.188;16.374;2023-02-23T19:33:05;99728.50;;;9.72;98.46
37304;BME280;23188;51.188;16.374;2023-02-23T19:37:08;99729.77;;;9.78;99.33
37304;BME280;23188;51.188;16.374;2023-02-23T19:41:13;99728.59;;;9.77;99.67
37304;BME280;23188;51.188;16.374;2023-02-23T19:45:16;99731.04;;;9.63;99.98
37304;BME280;23188;51.188;16.374;2023-02-23T19:49:19;99726.91;;;9.62;100.00
37304;BME280;23188;51.188;16.374;2023-02-23T19:53:22;99728.16;;;9.66;100.00
37304;BME280;23188;51.188;16.374;2023-02-23T19:57:24;99732.33;;;9.79;100.00
37304;BME280;23188;51.188;16.374;2023-02-23T20:01:27;99727.80;;;9.86;100.00
37304;BME280;23188;51.188;16.374;2023-02-23T20:05:36;99722.30;;;9.96;100.00
37304;BME280;23188;51.188;16.374;2023-02-23T20:09:43;99722.01;;;9.98;100.00
37304;BME280;23188;51.188;16.374;2023-02-23T20:13:45;99719.27;;;10.01;100.00
37304;BME280;23188;51.188;16.374;2023-02-23T20:17:48;99717.80;;;10.01;100.00
37304;BME280;23188;51.188;16.374;2023-02-23T20:21:56;99715.83;;;10.08;100.00
37304;BME280;23188;51.188;16.374;2023-02-23T20:25:58;99708.77;;;10.05;100.00
37304;BME280;23188;51.188;16.374;2023-02-23T20:30:00;99704.77;;;10.04;100.00
37304;BME280;23188;51.188;16.374;2023-02-23T20:34:05;99700.10;;;9.99;100.00
37304;BME280;23188;51.188;16.374;2023-02-23T20:38:07;99696.67;;;10.02;100.00
37304;BME280;23188;51.188;16.374;2023-02-23T20:42:09;99692.70;;;9.97;100.00
37304;BME280;23188;51.188;16.374;2023-02-23T20:46:12;99689.33;;;9.91;100.00
37304;BME280;23188;51.188;16.374;2023-02-23T20:50:15;99685.19;;;9.95;100.00
37304;BME280;23188;51.188;16.374;2023-02-23T20:54:16;99684.13;;;10.04;100.00
37304;BME280;23188;51.188;16.374;2023-02-23T20:58:20;99685.51;;;10.12;99.82
37304;BME280;23188;51.188;16.374;2023-02-23T21:02:30;99686.47;;;10.15;99.24
37304;BME280;23188;51.188;16.374;2023-02-23T21:06:32;99688.39;;;10.18;99.05
37304;BME280;23188;51.188;16.374;2023-02-23T21:10:36;99682.14;;;10.12;99.23
37304;BME280;23188;51.188;16.374;2023-02-23T21:14:39;99681.56;;;10.12;99.32
37304;BME280;23188;51.188;16.374;2023-02-23T21:18:41;99678.89;;;10.10;99.56
37304;BME280;23188;51.188;16.374;2023-02-23T21:22:45;99674.23;;;10.03;99.95
37304;BME280;23188;51.188;16.374;2023-02-23T21:26:50;99675.60;;;10.06;100.00
37304;BME280;23188;51.188;16.374;2023-02-23T21:30:52;99671.48;;;10.04;100.00
37304;BME280;23188;51.188;16.374;2023-02-23T21:34:54;99667.80;;;10.04;100.00
37304;BME280;23188;51.188;16.374;2023-02-23T21:38:56;99664.08;;;10.02;100.00
37304;BME280;23188;51.188;16.374;2023-02-23T21:42:58;99658.57;;;10.02;100.00
37304;BME280;23188;51.188;16.374;2023-02-23T21:47:01;99653.89;;;10.09;100.00
37304;BME280;23188;51.188;16.374;2023-02-23T21:51:10;99651.99;;;10.18;100.00
37304;BME280;23188;51.188;16.374;2023-02-23T21:55:14;99647.69;;;10.21;99.96
37304;BME280;23188;51.188;16.374;2023-02-23T21:59:24;99647.91;;;10.22;99.66
37304;BME280;23188;51.188;16.374;2023-02-23T22:03:26;99645.84;;;10.18;99.50
37304;BME280;23188;51.188;16.374;2023-02-23T22:07:29;99647.08;;;10.14;99.68
37304;BME280;23188;51.188;16.374;2023-02-23T22:11:32;99647.46;;;10.11;99.52
37304;BME280;23188;51.188;16.374;2023-02-23T22:15:37;99648.80;;;10.10;99.37
37304;BME280;23188;51.188;16.374;2023-02-23T22:19:39;99651.16;;;10.10;99.09
37304;BME280;23188;51.188;16.374;2023-02-23T22:23:41;99643.43;;;10.13;99.11
37304;BME280;23188;51.188;16.374;2023-02-23T22:27:44;99637.27;;;10.14;98.97
37304;BME280;23188;51.188;16.374;2023-02-23T22:31:46;99629.34;;;10.18;98.83
37304;BME280;23188;51.188;16.374;2023-02-23T22:35:49;99620.11;;;10.22;98.56
37304;BME280;23188;51.188;16.374;2023-02-23T22:39:51;99613.77;;;10.20;98.25
37304;BME280;23188;51.188;16.374;2023-02-23T22:43:54;99610.30;;;10.17;98.28
37304;BME280;23188;51.188;16.374;2023-02-23T22:47:58;99604.77;;;10.13;98.43
37304;BME280;23188;51.188;16.374;2023-02-23T22:52:02;99602.56;;;10.12;98.38
37304;BME280;23188;51.188;16.374;2023-02-23T22:56:04;99603.23;;;10.14;98.78
37304;BME280;23188;51.188;16.374;2023-02-23T23:00:08;99601.51;;;10.18;98.60
37304;BME280;23188;51.188;16.374;2023-02-23T23:04:11;99601.27;;;10.27;98.89
37304;BME280;23188;51.188;16.374;2023-02-23T23:08:12;99597.05;;;10.32;98.62
37304;BME280;23188;51.188;16.374;2023-02-23T23:12:15;99595.88;;;10.39;99.10
37304;BME280;23188;51.188;16.374;2023-02-23T23:16:24;99589.29;;;10.42;98.38
37304;BME280;23188;51.188;16.374;2023-02-23T23:20:33;99586.72;;;10.31;98.68
37304;BME280;23188;51.188;16.374;2023-02-23T23:24:35;99583.13;;;10.24;98.97
37304;BME280;23188;51.188;16.374;2023-02-23T23:28:37;99582.08;;;10.17;99.42
37304;BME280;23188;51.188;16.374;2023-02-23T23:32:41;99575.66;;;10.12;99.99
37304;BME280;23188;51.188;16.374;2023-02-23T23:36:44;99573.89;;;10.12;100.00
37304;BME280;23188;51.188;16.374;2023-02-23T23:40:47;99571.40;;;10.10;100.00
37304;BME280;23188;51.188;16.374;2023-02-23T23:44:49;99562.06;;;10.09;100.00
37304;BME280;23188;51.188;16.374;2023-02-23T23:48:52;99558.37;;;10.09;100.00
37304;BME280;23188;51.188;16.374;2023-02-23T23:52:55;99553.05;;;10.07;100.00
37304;BME280;23188;51.188;16.374;2023-02-23T23:56:58;99547.71;;;10.09;100.00
